createdAt,value
2023-10-09T00:00:38.823Z,101191.88
2023-10-09T00:01:47.692Z,101182.66
2023-10-09T00:02:49.727Z,101180.03
2023-10-09T00:03:54.547Z,101187.66
2023-10-09T00:04:58.130Z,101190.47
2023-10-09T00:06:00.380Z,101185.28
2023-10-09T00:07:02.468Z,101186.25
2023-10-09T00:08:05.039Z,101196.16
2023-10-09T00:09:27.937Z,101193.63
2023-10-09T00:10:36.881Z,101191.16
2023-10-09T00:11:43.012Z,101187.97
2023-10-09T00:12:44.983Z,101192.34
2023-10-09T00:13:53.907Z,101177.81
2023-10-09T00:15:08.523Z,101184.41
2023-10-09T00:16:15.040Z,101188.94
2023-10-09T00:17:19.221Z,101169.34
2023-10-09T00:18:30.703Z,101189.94
2023-10-09T00:19:32.771Z,101179.78
2023-10-09T00:20:40.812Z,101181.66
2023-10-09T00:21:42.997Z,101186.53
2023-10-09T00:22:47.749Z,101182.34
2023-10-09T00:24:00.618Z,101186.03
2023-10-09T00:25:22.840Z,101182.19
2023-10-09T00:26:24.812Z,101181.72
2023-10-09T00:27:32.656Z,101179.78
2023-10-09T00:28:35.487Z,101183.19
2023-10-09T00:29:43.535Z,101173.59
2023-10-09T00:30:45.367Z,101176.09
2023-10-09T00:31:51.461Z,101169.66
2023-10-09T00:33:01.196Z,101167.38
2023-10-09T00:34:06.353Z,101179.78
2023-10-09T00:35:26.817Z,101172.75
2023-10-09T00:36:29.828Z,101167.06
2023-10-09T00:37:35.383Z,101163.69
2023-10-09T00:38:53.246Z,101164.00
2023-10-09T00:39:58.253Z,101156.09
2023-10-09T00:41:08.855Z,101168.53
2023-10-09T00:42:15.258Z,101164.00
2023-10-09T00:43:20.707Z,101174.72
2023-10-09T00:44:23.146Z,101173.03
2023-10-09T00:45:33.592Z,101151.91
2023-10-09T00:46:36.289Z,101165.47
2023-10-09T00:47:42.207Z,101164.47
2023-10-09T00:50:00.785Z,101164.47
2023-10-09T00:51:05.188Z,101165.28
2023-10-09T00:52:13.728Z,101164.28
2023-10-09T00:53:19.529Z,101162.59
2023-10-09T00:54:27.543Z,101165.28
2023-10-09T00:55:38.826Z,101164.59
2023-10-09T00:56:44.653Z,101172.53
2023-10-09T00:57:59.019Z,101160.09
2023-10-09T00:59:09.745Z,101166.97
2023-10-09T01:00:33.168Z,101168.84
2023-10-09T01:01:37.911Z,101156.09
2023-10-09T01:02:44.058Z,101161.59
2023-10-09T01:03:46.674Z,101162.59
2023-10-09T01:04:48.685Z,101152.63
2023-10-09T01:06:11.321Z,101149.41
2023-10-09T01:07:26.994Z,101165.16
2023-10-09T01:08:29.994Z,101166.16
2023-10-09T01:09:38.470Z,101159.41
2023-10-09T01:10:52.376Z,101161.91
2023-10-09T01:12:00.079Z,101160.91
2023-10-09T01:13:02.472Z,101155.84
2023-10-09T01:14:13.477Z,101155.03
2023-10-09T01:15:34.216Z,101159.41
2023-10-09T01:16:36.731Z,101167.97
2023-10-09T01:17:46.714Z,101150.53
2023-10-09T01:18:51.137Z,101156.16
2023-10-09T01:19:57.730Z,101156.84
2023-10-09T01:20:59.900Z,101154.78
2023-10-09T01:22:05.807Z,101154.78
2023-10-09T01:23:09.124Z,101158.16
2023-10-09T01:24:11.065Z,101157.28
2023-10-09T01:25:12.803Z,101154.22
2023-10-09T01:26:14.545Z,101160.28
2023-10-09T01:27:17.165Z,101155.78
2023-10-09T01:28:19.469Z,101161.28
2023-10-09T01:29:22.996Z,101148.03
2023-10-09T01:31:27.973Z,101157.59
2023-10-09T01:32:30.595Z,101159.44
2023-10-09T01:33:36.853Z,101157.75
2023-10-09T01:34:45.905Z,101155.91
2023-10-09T01:35:50.008Z,101165.50
2023-10-09T01:36:57.055Z,101155.78
2023-10-09T01:37:59.034Z,101144.34
2023-10-09T01:39:09.035Z,101157.59
2023-10-09T01:40:38.336Z,101155.78
2023-10-09T01:41:48.045Z,101159.53
2023-10-09T01:42:50.370Z,101146.72
2023-10-09T01:43:56.650Z,101153.78
2023-10-09T01:45:12.070Z,101155.59
2023-10-09T01:46:17.443Z,101148.72
2023-10-09T01:47:22.938Z,101151.09
2023-10-09T01:48:25.876Z,101154.78
2023-10-09T01:49:30.951Z,101150.41
2023-10-09T01:50:36.662Z,101152.53
2023-10-09T01:51:39.839Z,101110.81
2023-10-09T01:52:43.940Z,101147.03
2023-10-09T01:53:48.939Z,101135.03
2023-10-09T01:54:53.334Z,101148.16
2023-10-09T01:55:56.802Z,101146.16
2023-10-09T01:56:58.684Z,101158.75
2023-10-09T01:58:07.257Z,101147.34
2023-10-09T01:59:11.044Z,101142.78
2023-10-09T02:00:17.830Z,101139.09
2023-10-09T02:01:20.122Z,101140.97
2023-10-09T02:02:32.115Z,101140.97
2023-10-09T02:03:38.390Z,101137.28
2023-10-09T02:04:41.862Z,101122.78
2023-10-09T02:05:43.774Z,101129.84
2023-10-09T02:06:45.492Z,101137.03
2023-10-09T02:07:53.526Z,101128.28
2023-10-09T02:08:57.435Z,101136.59
2023-10-09T02:09:59.263Z,101134.91
2023-10-09T02:11:03.762Z,101129.66
2023-10-09T02:12:05.970Z,101135.03
2023-10-09T02:13:08.956Z,101127.97
2023-10-09T02:14:25.299Z,101136.91
2023-10-09T02:15:43.736Z,101134.75
2023-10-09T02:17:07.501Z,101126.84
2023-10-09T02:18:22.866Z,101134.28
2023-10-09T02:19:32.803Z,101126.25
2023-10-09T02:20:38.979Z,101118.78
2023-10-09T02:21:45.041Z,101135.59
2023-10-09T02:22:47.850Z,101136.59
2023-10-09T02:23:52.704Z,101128.84
2023-10-09T02:25:00.677Z,101125.31
2023-10-09T02:26:07.161Z,101133.22
2023-10-09T02:27:10.480Z,101132.53
2023-10-09T02:28:21.067Z,101129.16
2023-10-09T02:29:25.371Z,101131.53
2023-10-09T02:30:30.600Z,101135.22
2023-10-09T02:31:42.159Z,101136.19
2023-10-09T02:32:44.685Z,101133.34
2023-10-09T02:33:46.474Z,101141.56
2023-10-09T02:34:48.206Z,101132.81
2023-10-09T02:35:52.637Z,101127.19
2023-10-09T02:37:06.808Z,101136.50
2023-10-09T02:38:09.746Z,101137.91
2023-10-09T02:39:44.114Z,101139.88
2023-10-09T02:41:14.772Z,101144.34
2023-10-09T02:42:16.552Z,101134.59
2023-10-09T02:43:19.591Z,101128.47
2023-10-09T02:44:25.988Z,101127.31
2023-10-09T02:45:36.032Z,101137.91
2023-10-09T02:46:37.928Z,101134.81
2023-10-09T02:47:40.894Z,101133.66
2023-10-09T02:48:54.875Z,101133.81
2023-10-09T02:50:07.954Z,101130.97
2023-10-09T02:51:17.701Z,101135.22
2023-10-09T02:52:34.333Z,101131.66
2023-10-09T02:53:38.653Z,101132.22
2023-10-09T02:54:43.195Z,101126.28
2023-10-09T02:55:54.691Z,101122.91
2023-10-09T02:56:58.074Z,101125.47
2023-10-09T02:58:12.156Z,101130.97
2023-10-09T02:59:13.927Z,101130.84
2023-10-09T03:00:20.737Z,101120.94
2023-10-09T03:01:22.781Z,101123.31
2023-10-09T03:02:25.464Z,101120.94
2023-10-09T03:03:28.264Z,101129.44
2023-10-09T03:04:33.055Z,101128.56
2023-10-09T03:05:34.915Z,101122.63
2023-10-09T03:06:44.450Z,101135.78
2023-10-09T03:07:46.296Z,101122.63
2023-10-09T03:08:48.501Z,101130.28
2023-10-09T03:09:51.056Z,101124.63
2023-10-09T03:10:52.871Z,101132.13
2023-10-09T03:11:56.938Z,101131.38
2023-10-09T03:13:01.215Z,101138.47
2023-10-09T03:14:05.889Z,101130.00
2023-10-09T03:15:09.980Z,101134.91
2023-10-09T03:16:22.602Z,101133.94
2023-10-09T03:17:24.649Z,101123.31
2023-10-09T03:18:26.403Z,101115.56
2023-10-09T03:19:30.249Z,101127.88
2023-10-09T03:20:35.796Z,101127.72
2023-10-09T03:21:37.499Z,101122.09
2023-10-09T03:22:43.834Z,101117.44
2023-10-09T03:23:50.857Z,101124.09
2023-10-09T03:24:54.131Z,101120.41
2023-10-09T03:26:04.088Z,101115.28
2023-10-09T03:27:12.940Z,101116.03
2023-10-09T03:28:16.436Z,101118.41
2023-10-09T03:29:20.692Z,101115.03
2023-10-09T03:30:25.418Z,101120.41
2023-10-09T03:31:28.196Z,101118.53
2023-10-09T03:32:30.084Z,101103.47
2023-10-09T03:33:34.282Z,101122.22
2023-10-09T03:34:36.134Z,101125.78
2023-10-09T03:35:39.254Z,101118.72
2023-10-09T03:36:41.040Z,101126.78
2023-10-09T03:37:43.485Z,101112.91
2023-10-09T03:38:45.574Z,101122.38
2023-10-09T03:39:48.447Z,101120.94
2023-10-09T03:40:50.173Z,101121.50
2023-10-09T03:41:53.280Z,101118.94
2023-10-09T03:42:55.288Z,101112.19
2023-10-09T03:43:57.172Z,101119.81
2023-10-09T03:44:59.231Z,101125.19
2023-10-09T03:46:04.555Z,101124.31
2023-10-09T03:47:06.489Z,101108.13
2023-10-09T03:48:22.639Z,101115.88
2023-10-09T03:49:27.408Z,101118.53
2023-10-09T03:50:37.112Z,101115.28
2023-10-09T03:51:40.878Z,101127.47
2023-10-09T03:52:42.841Z,101124.91
2023-10-09T03:53:44.620Z,101122.38
2023-10-09T03:54:50.781Z,101121.63
2023-10-09T03:55:52.583Z,101118.81
2023-10-09T03:56:55.951Z,101115.28
2023-10-09T03:58:02.035Z,101114.44
2023-10-09T03:59:05.865Z,101114.44
2023-10-09T04:00:12.290Z,101125.19
2023-10-09T04:01:23.909Z,101121.50
2023-10-09T04:02:25.890Z,101122.22
2023-10-09T04:03:27.831Z,101122.38
2023-10-09T04:04:30.160Z,101118.94
2023-10-09T04:05:32.015Z,101115.44
2023-10-09T04:06:35.081Z,101111.91
2023-10-09T04:07:36.842Z,101111.50
2023-10-09T04:08:41.160Z,101119.94
2023-10-09T04:09:45.925Z,101111.91
2023-10-09T04:10:57.993Z,101112.75
2023-10-09T04:12:12.474Z,101121.41
2023-10-09T04:13:18.793Z,101112.34
2023-10-09T04:14:27.396Z,101113.34
2023-10-09T04:15:31.969Z,101117.00
2023-10-09T04:16:33.793Z,101103.63
2023-10-09T04:17:36.366Z,101107.13
2023-10-09T04:18:39.876Z,101117.25
2023-10-09T04:19:49.414Z,101112.06
2023-10-09T04:21:23.714Z,101113.75
2023-10-09T04:22:28.639Z,101110.34
2023-10-09T04:23:37.706Z,101115.88
2023-10-09T04:24:46.075Z,101115.13
2023-10-09T04:25:52.203Z,101117.00
2023-10-09T04:27:00.274Z,101122.38
2023-10-09T04:28:11.647Z,101120.81
2023-10-09T04:29:38.643Z,101109.38
2023-10-09T04:30:48.505Z,101116.72
2023-10-09T04:31:53.093Z,101108.94
2023-10-09T04:33:01.096Z,101118.94
2023-10-09T04:34:30.036Z,101116.28
2023-10-09T04:35:32.158Z,101120.22
2023-10-09T04:36:47.365Z,101119.81
2023-10-09T04:37:53.574Z,101122.38
2023-10-09T04:39:21.862Z,101114.59
2023-10-09T04:40:38.854Z,101127.47
2023-10-09T04:41:43.357Z,101131.97
2023-10-09T04:42:59.355Z,101126.31
2023-10-09T04:44:21.118Z,101132.25
2023-10-09T04:45:43.259Z,101133.09
2023-10-09T04:47:23.724Z,101135.66
2023-10-09T04:48:34.399Z,101134.22
2023-10-09T04:49:49.863Z,101128.56
2023-10-09T04:51:10.399Z,101130.41
2023-10-09T04:52:20.012Z,101127.72
2023-10-09T04:53:24.654Z,101124.31
2023-10-09T04:54:40.760Z,101128.31
2023-10-09T04:55:45.454Z,101117.56
2023-10-09T04:56:53.364Z,101118.88
2023-10-09T04:58:10.832Z,101117.88
2023-10-09T04:59:19.540Z,101116.75
2023-10-09T05:00:27.459Z,101101.63
2023-10-09T05:01:45.182Z,101109.00
2023-10-09T05:02:56.019Z,101109.69
2023-10-09T05:04:04.811Z,101111.38
2023-10-09T05:05:39.473Z,101104.31
2023-10-09T05:06:45.337Z,101109.91
2023-10-09T05:07:56.313Z,101113.88
2023-10-09T05:09:09.094Z,101118.44
2023-10-09T05:10:25.374Z,101125.50
2023-10-09T05:11:54.322Z,101109.13
2023-10-09T05:12:59.125Z,101120.09
2023-10-09T05:14:13.166Z,101116.03
2023-10-09T05:15:15.867Z,101116.72
2023-10-09T05:16:34.434Z,101115.03
2023-10-09T05:17:40.544Z,101112.75
2023-10-09T05:18:43.299Z,101109.88
2023-10-09T05:19:56.337Z,101111.88
2023-10-09T05:21:07.202Z,101116.31
2023-10-09T05:22:31.227Z,101110.44
2023-10-09T05:23:45.535Z,101118.63
2023-10-09T05:24:48.441Z,101119.63
2023-10-09T05:26:00.148Z,101121.03
2023-10-09T05:27:28.637Z,101122.41
2023-10-09T05:28:33.163Z,101122.31
2023-10-09T05:29:35.069Z,101122.31
2023-10-09T05:30:42.993Z,101120.50
2023-10-09T05:32:17.115Z,101125.56
2023-10-09T05:33:34.808Z,101113.19
2023-10-09T05:34:59.290Z,101123.16
2023-10-09T05:36:21.650Z,101122.69
2023-10-09T05:37:26.489Z,101112.63
2023-10-09T05:38:31.840Z,101131.13
2023-10-09T05:39:42.785Z,101130.13
2023-10-09T05:40:46.712Z,101127.13
2023-10-09T05:42:08.994Z,101119.69
2023-10-09T05:43:31.305Z,101134.44
2023-10-09T05:44:51.759Z,101136.38
2023-10-09T05:46:17.021Z,101129.81
2023-10-09T05:47:32.767Z,101134.56
2023-10-09T05:48:54.981Z,101136.25
2023-10-09T05:50:04.313Z,101138.47
2023-10-09T05:51:13.871Z,101132.25
2023-10-09T05:52:54.011Z,101131.41
2023-10-09T05:54:33.897Z,101139.22
2023-10-09T05:55:54.172Z,101138.56
2023-10-09T05:57:21.874Z,101127.31
2023-10-09T05:58:42.175Z,101129.13
2023-10-09T06:00:17.475Z,101141.13
2023-10-09T06:01:37.898Z,101142.34
2023-10-09T06:03:02.355Z,101142.47
2023-10-09T06:04:28.158Z,101149.41
2023-10-09T06:05:42.042Z,101145.84
2023-10-09T06:06:46.141Z,101142.34
2023-10-09T06:08:08.191Z,101145.31
2023-10-09T06:09:16.840Z,101146.84
2023-10-09T06:10:34.601Z,101154.94
2023-10-09T06:11:39.898Z,101154.06
2023-10-09T06:12:44.401Z,101146.00
2023-10-09T06:13:49.105Z,101149.69
2023-10-09T06:14:51.024Z,101145.31
2023-10-09T06:16:02.613Z,101143.81
2023-10-09T06:17:22.991Z,101141.63
2023-10-09T06:18:27.835Z,101143.84
2023-10-09T06:19:29.963Z,101150.22
2023-10-09T06:21:03.456Z,101144.31
2023-10-09T06:22:05.214Z,101146.22
2023-10-09T06:23:24.892Z,101150.09
2023-10-09T06:24:34.806Z,101146.53
2023-10-09T06:25:40.542Z,101151.91
2023-10-09T06:27:02.221Z,101153.94
2023-10-09T06:28:04.373Z,101166.91
2023-10-09T06:29:34.854Z,101161.84
2023-10-09T06:30:36.789Z,101167.59
2023-10-09T06:31:58.015Z,101154.06
2023-10-09T06:33:05.895Z,101166.91
2023-10-09T06:34:16.663Z,101167.91
2023-10-09T06:35:19.274Z,101167.91
2023-10-09T06:36:21.090Z,101166.38
2023-10-09T06:37:26.005Z,101163.84
2023-10-09T06:38:41.746Z,101160.44
2023-10-09T06:40:12.481Z,101169.91
2023-10-09T06:41:36.083Z,101163.03
2023-10-09T06:42:40.839Z,101167.59
2023-10-09T06:43:44.336Z,101171.28
2023-10-09T06:44:55.115Z,101171.59
2023-10-09T06:46:17.370Z,101166.38
2023-10-09T06:47:20.007Z,101157.75
2023-10-09T06:48:35.047Z,101163.47
2023-10-09T06:49:37.743Z,101169.75
2023-10-09T06:51:08.777Z,101162.63
2023-10-09T06:52:16.871Z,101175.81
2023-10-09T06:53:22.792Z,101184.06
2023-10-09T06:54:30.941Z,101173.91
2023-10-09T06:55:52.942Z,101169.84
2023-10-09T06:56:54.661Z,101187.75
2023-10-09T06:57:56.411Z,101182.69
2023-10-09T06:58:59.295Z,101184.66
2023-10-09T07:00:19.691Z,101175.91
2023-10-09T07:01:30.315Z,101177.31
2023-10-09T07:02:47.244Z,101182.69
2023-10-09T07:03:55.513Z,101187.75
2023-10-09T07:04:57.975Z,101186.53
2023-10-09T07:06:26.203Z,101186.34
2023-10-09T07:07:28.388Z,101174.22
2023-10-09T07:08:33.512Z,101170.84
2023-10-09T07:09:44.904Z,101174.84
2023-10-09T07:11:03.533Z,101180.91
2023-10-09T07:12:11.260Z,101173.91
2023-10-09T07:13:13.083Z,101193.44
2023-10-09T07:14:32.152Z,101174.03
2023-10-09T07:15:52.707Z,101192.44
2023-10-09T07:17:01.192Z,101185.38
2023-10-09T07:18:20.469Z,101188.91
2023-10-09T07:19:48.180Z,101181.13
2023-10-09T07:21:00.547Z,101192.81
2023-10-09T07:22:17.110Z,101188.75
2023-10-09T07:23:22.097Z,101187.75
2023-10-09T07:24:39.151Z,101180.47
2023-10-09T07:25:42.514Z,101187.88
2023-10-09T07:26:54.584Z,101184.66
2023-10-09T07:27:56.905Z,101179.78
2023-10-09T07:29:17.632Z,101182.97
2023-10-09T07:30:33.254Z,101187.22
2023-10-09T07:31:41.191Z,101176.59
2023-10-09T07:32:44.746Z,101169.47
2023-10-09T07:33:58.049Z,101192.03
2023-10-09T07:35:01.073Z,101190.03
2023-10-09T07:36:09.276Z,101183.28
2023-10-09T07:37:11.293Z,101188.53
2023-10-09T07:38:15.820Z,101194.03
2023-10-09T07:39:18.219Z,101183.28
2023-10-09T07:40:20.391Z,101187.66
2023-10-09T07:41:22.240Z,101187.84
2023-10-09T07:42:42.422Z,101190.66
2023-10-09T07:43:44.225Z,101177.59
2023-10-09T07:44:54.000Z,101183.28
2023-10-09T07:45:59.673Z,101175.53
2023-10-09T07:47:21.157Z,101161.91
2023-10-09T07:48:27.099Z,101174.22
2023-10-09T07:49:30.555Z,101168.47
2023-10-09T07:50:49.741Z,101181.47
2023-10-09T07:51:53.764Z,101177.91
2023-10-09T07:53:15.573Z,101183.97
2023-10-09T07:54:32.822Z,101181.81
2023-10-09T07:55:40.708Z,101167.84
2023-10-09T07:56:47.593Z,101155.88
2023-10-09T07:57:53.480Z,101173.91
2023-10-09T07:59:01.282Z,101175.91
2023-10-09T08:00:13.085Z,101175.91
2023-10-09T08:01:36.372Z,101173.06
2023-10-09T08:02:40.298Z,101168.25
2023-10-09T08:03:50.516Z,101172.22
2023-10-09T08:04:54.617Z,101178.44
2023-10-09T08:06:08.207Z,101175.06
2023-10-09T08:08:02.083Z,101184.66
2023-10-09T08:09:02.033Z,101183.19
2023-10-09T08:10:15.016Z,101177.00
2023-10-09T08:11:35.594Z,101184.19
2023-10-09T08:12:59.004Z,101183.19
2023-10-09T08:14:04.717Z,101164.31
2023-10-09T08:15:20.190Z,101185.53
2023-10-09T08:16:24.104Z,101176.78
2023-10-09T08:17:30.331Z,101180.28
2023-10-09T08:18:33.142Z,101181.28
2023-10-09T08:19:34.920Z,101183.28
2023-10-09T08:20:58.417Z,101171.03
2023-10-09T08:22:19.728Z,101179.28
2023-10-09T08:23:44.892Z,101183.50
2023-10-09T08:24:57.226Z,101188.75
2023-10-09T08:26:14.244Z,101175.91
2023-10-09T08:27:34.401Z,101182.69
2023-10-09T08:28:44.065Z,101184.38
2023-10-09T08:29:48.231Z,101180.97
2023-10-09T08:31:10.415Z,101162.91
2023-10-09T08:34:16.967Z,101180.97
2023-10-09T08:36:09.274Z,101182.16
2023-10-09T08:37:14.418Z,101184.66
2023-10-09T08:38:24.556Z,101184.84
2023-10-09T08:39:26.760Z,101170.16
2023-10-09T08:40:40.126Z,101176.53
2023-10-09T08:41:42.170Z,101182.97
2023-10-09T08:42:45.162Z,101188.66
2023-10-09T08:43:52.812Z,101182.59
2023-10-09T08:44:57.669Z,101175.53
2023-10-09T08:46:05.149Z,101174.53
2023-10-09T08:47:08.644Z,101169.34
2023-10-09T08:48:17.078Z,101168.16
2023-10-09T08:49:19.507Z,101174.22
2023-10-09T08:50:22.562Z,101165.47
2023-10-09T08:51:28.775Z,101165.63
2023-10-09T08:52:30.712Z,101169.84
2023-10-09T08:53:34.308Z,101169.00
2023-10-09T08:54:36.428Z,101171.03
2023-10-09T08:55:42.467Z,101179.91
2023-10-09T08:56:52.291Z,101169.47
2023-10-09T08:57:54.188Z,101166.78
2023-10-09T08:58:58.534Z,101177.91
2023-10-09T09:00:00.277Z,101172.53
2023-10-09T09:01:02.222Z,101175.22
2023-10-09T09:02:04.729Z,101168.47
2023-10-09T09:03:07.466Z,101174.84
2023-10-09T09:04:09.405Z,101167.09
2023-10-09T09:05:26.128Z,101176.09
2023-10-09T09:06:36.919Z,101168.84
2023-10-09T09:07:40.717Z,101173.63
2023-10-09T09:08:46.389Z,101167.16
2023-10-09T09:09:58.665Z,101169.38
2023-10-09T09:11:24.384Z,101170.59
2023-10-09T09:12:29.478Z,101166.53
2023-10-09T09:13:32.979Z,101171.94
2023-10-09T09:14:39.226Z,101173.91
2023-10-09T09:15:41.643Z,101163.78
2023-10-09T09:16:49.500Z,101160.78
2023-10-09T09:17:51.591Z,101178.28
2023-10-09T09:19:04.311Z,101177.59
2023-10-09T09:20:24.307Z,101172.22
2023-10-09T09:21:28.766Z,101171.59
2023-10-09T09:22:52.473Z,101173.63
2023-10-09T09:24:15.474Z,101173.97
2023-10-09T09:25:17.258Z,101177.34
2023-10-09T09:26:37.809Z,101172.63
2023-10-09T09:27:57.030Z,101157.41
2023-10-09T09:28:58.872Z,101176.50
2023-10-09T09:30:09.058Z,101175.31
2023-10-09T09:31:15.359Z,101176.13
2023-10-09T09:32:18.910Z,101178.00
2023-10-09T09:33:40.074Z,101180.69
2023-10-09T09:34:56.098Z,101181.88
2023-10-09T09:35:59.455Z,101177.34
2023-10-09T09:37:04.941Z,101173.44
2023-10-09T09:38:08.766Z,101177.00
2023-10-09T09:39:20.402Z,101181.38
2023-10-09T09:40:34.985Z,101174.31
2023-10-09T09:41:41.412Z,101174.66
2023-10-09T09:42:49.620Z,101170.44
2023-10-09T09:44:04.081Z,101169.44
2023-10-09T09:45:08.397Z,101174.66
2023-10-09T09:46:13.088Z,101176.66
2023-10-09T09:47:25.052Z,101174.97
2023-10-09T09:48:27.356Z,101173.81
2023-10-09T09:49:32.952Z,101174.97
2023-10-09T09:50:38.257Z,101175.81
2023-10-09T09:51:44.068Z,101177.50
2023-10-09T09:52:48.250Z,101175.81
2023-10-09T09:53:50.245Z,101174.97
2023-10-09T09:54:52.729Z,101173.97
2023-10-09T09:55:59.514Z,101173.28
2023-10-09T09:57:09.674Z,101162.47
2023-10-09T09:58:21.566Z,101176.50
2023-10-09T09:59:28.802Z,101178.34
2023-10-09T10:00:43.155Z,101178.34
2023-10-09T10:01:46.283Z,101170.97
2023-10-09T10:02:49.036Z,101174.66
2023-10-09T10:03:57.410Z,101173.28
2023-10-09T10:05:04.467Z,101175.66
2023-10-09T10:06:13.340Z,101181.72
2023-10-09T10:07:17.508Z,101175.50
2023-10-09T10:08:21.742Z,101181.88
2023-10-09T10:09:40.142Z,101186.09
2023-10-09T10:10:54.259Z,101183.25
2023-10-09T10:12:01.599Z,101166.53
2023-10-09T10:13:03.986Z,101175.16
2023-10-09T10:14:13.358Z,101184.41
2023-10-09T10:15:17.907Z,101176.34
2023-10-09T10:16:19.673Z,101179.03
2023-10-09T10:17:23.154Z,101180.03
2023-10-09T10:18:25.735Z,101178.34
2023-10-09T10:20:19.005Z,101180.56
2023-10-09T10:21:34.357Z,101178.91
2023-10-09T10:22:39.191Z,101179.91
2023-10-09T10:23:41.566Z,101181.22
2023-10-09T10:24:53.021Z,101168.09
2023-10-09T10:26:01.696Z,101177.84
2023-10-09T10:27:28.363Z,101176.03
2023-10-09T10:28:37.282Z,101168.41
2023-10-09T10:29:39.835Z,101185.63
2023-10-09T10:30:47.995Z,101185.94
2023-10-09T10:31:57.782Z,101176.19
2023-10-09T10:33:10.756Z,101180.56
2023-10-09T10:34:12.735Z,101177.72
2023-10-09T10:35:16.430Z,101180.19
2023-10-09T10:36:25.417Z,101180.72
2023-10-09T10:37:52.524Z,101180.41
2023-10-09T10:39:06.411Z,101179.09
2023-10-09T10:40:16.742Z,101181.09
2023-10-09T10:41:23.716Z,101184.78
2023-10-09T10:42:37.557Z,101178.03
2023-10-09T10:43:49.181Z,101185.78
2023-10-09T10:44:54.990Z,101170.97
2023-10-09T10:46:06.263Z,101158.63
2023-10-09T10:47:26.380Z,101174.66
2023-10-09T10:48:38.579Z,101185.47
2023-10-09T10:49:44.793Z,101178.03
2023-10-09T10:50:46.895Z,101187.47
2023-10-09T10:52:03.036Z,101180.03
2023-10-09T10:53:20.639Z,101183.78
2023-10-09T10:54:46.822Z,101181.41
2023-10-09T10:56:28.068Z,101180.09
2023-10-09T10:57:30.198Z,101177.63
2023-10-09T10:58:48.744Z,101185.16
2023-10-09T10:59:51.203Z,101185.84
2023-10-09T11:00:57.680Z,101178.22
2023-10-09T11:02:02.841Z,101182.78
2023-10-09T11:03:20.659Z,101184.78
2023-10-09T11:04:35.020Z,101175.03
2023-10-09T11:05:41.038Z,101180.78
2023-10-09T11:06:44.456Z,101179.22
2023-10-09T11:07:46.411Z,101182.09
2023-10-09T11:08:56.273Z,101186.78
2023-10-09T11:10:05.351Z,101182.94
2023-10-09T11:11:16.915Z,101174.34
2023-10-09T11:12:25.212Z,101178.41
2023-10-09T11:13:38.048Z,101175.72
2023-10-09T11:14:47.763Z,101180.09
2023-10-09T11:15:57.491Z,101177.22
2023-10-09T11:16:59.895Z,101161.56
2023-10-09T11:18:10.506Z,101173.16
2023-10-09T11:19:24.318Z,101167.47
2023-10-09T11:20:27.712Z,101168.31
2023-10-09T11:21:32.523Z,101161.56
2023-10-09T11:22:40.400Z,101164.78
2023-10-09T11:23:59.233Z,101163.09
2023-10-09T11:25:13.733Z,101167.00
2023-10-09T11:26:29.048Z,101160.94
2023-10-09T11:27:34.194Z,101169.69
2023-10-09T11:28:50.150Z,101167.31
2023-10-09T11:29:52.775Z,101158.38
2023-10-09T11:30:56.828Z,101166.31
2023-10-09T11:32:18.538Z,101161.25
2023-10-09T11:33:20.448Z,101160.59
2023-10-09T11:34:30.754Z,101152.81
2023-10-09T11:35:36.137Z,101150.16
2023-10-09T11:36:37.864Z,101156.56
2023-10-09T11:37:40.828Z,101146.94
2023-10-09T11:38:46.946Z,101145.13
2023-10-09T11:39:53.560Z,101150.31
2023-10-09T11:40:56.897Z,101147.47
2023-10-09T11:42:05.435Z,101143.44
2023-10-09T11:43:14.303Z,101156.38
2023-10-09T11:44:25.496Z,101147.31
2023-10-09T11:45:38.581Z,101148.31
2023-10-09T11:46:49.888Z,101152.41
2023-10-09T11:48:01.050Z,101146.84
2023-10-09T11:49:20.990Z,101148.53
2023-10-09T11:50:32.104Z,101145.69
2023-10-09T11:51:33.962Z,101142.47
2023-10-09T11:52:57.742Z,101134.84
2023-10-09T11:54:00.457Z,101139.28
2023-10-09T11:55:16.066Z,101143.31
2023-10-09T11:56:24.656Z,101141.31
2023-10-09T11:57:33.079Z,101142.13
2023-10-09T11:58:35.207Z,101142.13
2023-10-09T11:59:40.125Z,101143.13
2023-10-09T12:00:48.292Z,101141.63
2023-10-09T12:01:54.355Z,101132.69
2023-10-09T12:03:07.546Z,101131.69
2023-10-09T12:04:10.779Z,101132.22
2023-10-09T12:05:18.362Z,101128.84
2023-10-09T12:06:24.049Z,101130.53
2023-10-09T12:07:26.564Z,101124.63
2023-10-09T12:08:28.412Z,101133.38
2023-10-09T12:09:30.603Z,101118.22
2023-10-09T12:10:32.290Z,101131.69
2023-10-09T12:11:34.150Z,101125.28
2023-10-09T12:12:36.122Z,101132.56
2023-10-09T12:13:43.844Z,101119.91
2023-10-09T12:14:45.639Z,101132.38
2023-10-09T12:15:48.167Z,101135.94
2023-10-09T12:16:51.389Z,101137.75
2023-10-09T12:17:54.664Z,101128.84
2023-10-09T12:18:57.015Z,101138.63
2023-10-09T12:20:00.133Z,101137.75
2023-10-09T12:21:05.600Z,101118.88
2023-10-09T12:22:12.136Z,101129.69
2023-10-09T12:23:16.070Z,101123.63
2023-10-09T12:24:20.219Z,101128.00
2023-10-09T12:25:22.029Z,101128.53
2023-10-09T12:26:24.122Z,101130.00
2023-10-09T12:27:25.981Z,101131.22
2023-10-09T12:28:27.944Z,101142.00
2023-10-09T12:29:31.480Z,101124.63
2023-10-09T12:30:40.911Z,101121.41
2023-10-09T12:31:46.619Z,101133.91
2023-10-09T12:32:48.592Z,101139.13
2023-10-09T12:33:52.662Z,101134.25
2023-10-09T12:34:54.893Z,101135.59
2023-10-09T12:36:05.225Z,101140.31
2023-10-09T12:37:07.442Z,101121.59
2023-10-09T12:38:11.881Z,101121.78
2023-10-09T12:39:19.314Z,101131.03
2023-10-09T12:40:25.278Z,101130.03
2023-10-09T12:41:28.779Z,101129.03
2023-10-09T12:42:30.763Z,101119.47
2023-10-09T12:43:32.588Z,101131.91
2023-10-09T12:44:40.274Z,101131.03
2023-10-09T12:45:46.262Z,101139.13
2023-10-09T12:46:53.680Z,101129.91
2023-10-09T12:48:00.795Z,101117.25
2023-10-09T12:49:02.668Z,101131.59
2023-10-09T12:50:15.032Z,101115.22
2023-10-09T12:51:18.304Z,101127.06
2023-10-09T12:52:21.018Z,101130.72
2023-10-09T12:53:22.867Z,101127.19
2023-10-09T12:54:28.800Z,101128.69
2023-10-09T12:55:33.402Z,101129.03
2023-10-09T12:56:38.631Z,101145.19
2023-10-09T12:57:41.369Z,101131.72
2023-10-09T12:58:54.188Z,101128.22
2023-10-09T12:59:57.074Z,101133.31
2023-10-09T13:01:10.829Z,101127.66
2023-10-09T13:02:31.325Z,101132.44
2023-10-09T13:03:34.197Z,101135.50
2023-10-09T13:04:42.039Z,101133.13
2023-10-09T13:05:53.328Z,101134.13
2023-10-09T13:06:55.573Z,101127.75
2023-10-09T13:07:57.557Z,101130.72
2023-10-09T13:09:01.133Z,101132.59
2023-10-09T13:10:09.725Z,101129.03
2023-10-09T13:11:13.032Z,101118.59
2023-10-09T13:12:19.910Z,101123.97